sensor_id;sensor_type;location;lat;lon;timestamp;temperature;humidity
35445;DHT22;21562;49.476;6.086;2022-11-20T00:00:29;8.70;99.90
35445;DHT22;21562;49.476;6.086;2022-11-20T00:02:54;8.70;99.90
35445;DHT22;21562;49.476;6.086;2022-11-20T00:05:20;8.80;99.90
35445;DHT22;21562;49.476;6.086;2022-11-20T00:07:46;8.90;99.90
35445;DHT22;21562;49.476;6.086;2022-11-20T00:10:12;8.80;99.90
35445;DHT22;21562;49.476;6.086;2022-11-20T00:12:37;8.80;99.90
35445;DHT22;21562;49.476;6.086;2022-11-20T00:15:04;8.80;99.90
35445;DHT22;21562;49.476;6.086;2022-11-20T00:17:29;8.80;99.90
35445;DHT22;21562;49.476;6.086;2022-11-20T00:19:55;9.00;99.90
35445;DHT22;21562;49.476;6.086;2022-11-20T00:22:21;9.00;99.90
35445;DHT22;21562;49.476;6.086;2022-11-20T00:24:46;8.80;99.90
35445;DHT22;21562;49.476;6.086;2022-11-20T00:27:12;8.70;99.90
35445;DHT22;21562;49.476;6.086;2022-11-20T00:29:37;8.70;99.90
35445;DHT22;21562;49.476;6.086;2022-11-20T00:32:03;8.80;99.90
35445;DHT22;21562;49.476;6.086;2022-11-20T00:34:29;8.80;99.90
35445;DHT22;21562;49.476;6.086;2022-11-20T00:36:54;8.90;99.90
35445;DHT22;21562;49.476;6.086;2022-11-20T00:39:20;8.90;99.90
35445;DHT22;21562;49.476;6.086;2022-11-20T00:41:46;8.60;99.90
35445;DHT22;21562;49.476;6.086;2022-11-20T00:44:11;8.60;99.90
35445;DHT22;21562;49.476;6.086;2022-11-20T00:46:37;8.60;99.90
35445;DHT22;21562;49.476;6.086;2022-11-20T00:49:02;8.70;99.90
35445;DHT22;21562;49.476;6.086;2022-11-20T00:51:28;8.80;99.90
35445;DHT22;21562;49.476;6.086;2022-11-20T00:53:59;8.80;99.90
35445;DHT22;21562;49.476;6.086;2022-11-20T00:56:27;8.80;99.90
35445;DHT22;21562;49.476;6.086;2022-11-20T00:58:53;8.90;99.90
35445;DHT22;21562;49.476;6.086;2022-11-20T01:01:21;9.00;99.90
35445;DHT22;21562;49.476;6.086;2022-11-20T01:03:48;8.90;99.90
35445;DHT22;21562;49.476;6.086;2022-11-20T01:06:17;8.90;99.90
35445;DHT22;21562;49.476;6.086;2022-11-20T01:08:44;8.90;99.90
35445;DHT22;21562;49.476;6.086;2022-11-20T01:11:22;8.80;99.90
35445;DHT22;21562;49.476;6.086;2022-11-20T01:13:50;8.70;99.90
35445;DHT22;21562;49.476;6.086;2022-11-20T01:16:22;8.70;99.90
35445;DHT22;21562;49.476;6.086;2022-11-20T01:18:49;8.90;99.90
35445;DHT22;21562;49.476;6.086;2022-11-20T01:21:19;8.90;99.90
35445;DHT22;21562;49.476;6.086;2022-11-20T01:23:45;9.00;99.90
35445;DHT22;21562;49.476;6.086;2022-11-20T01:26:17;9.00;99.90
35445;DHT22;21562;49.476;6.086;2022-11-20T01:28:44;8.90;99.90
35445;DHT22;21562;49.476;6.086;2022-11-20T01:33:44;8.80;99.90
35445;DHT22;21562;49.476;6.086;2022-11-20T01:36:11;8.90;99.90
35445;DHT22;21562;49.476;6.086;2022-11-20T01:38:37;8.90;99.90
35445;DHT22;21562;49.476;6.086;2022-11-20T01:41:04;8.60;99.90
35445;DHT22;21562;49.476;6.086;2022-11-20T01:43:30;8.70;99.90
35445;DHT22;21562;49.476;6.086;2022-11-20T01:48:38;8.60;99.90
35445;DHT22;21562;49.476;6.086;2022-11-20T01:51:10;8.50;99.90
35445;DHT22;21562;49.476;6.086;2022-11-20T01:53:38;8.60;99.90
35445;DHT22;21562;49.476;6.086;2022-11-20T01:56:06;8.70;99.90
35445;DHT22;21562;49.476;6.086;2022-11-20T01:58:36;8.70;99.90
35445;DHT22;21562;49.476;6.086;2022-11-20T02:01:03;8.80;99.90
35445;DHT22;21562;49.476;6.086;2022-11-20T02:03:30;8.80;99.90
35445;DHT22;21562;49.476;6.086;2022-11-20T02:06:11;8.70;99.90
35445;DHT22;21562;49.476;6.086;2022-11-20T02:08:38;8.70;99.90
35445;DHT22;21562;49.476;6.086;2022-11-20T02:11:04;8.80;99.90
35445;DHT22;21562;49.476;6.086;2022-11-20T02:13:30;8.80;99.90
35445;DHT22;21562;49.476;6.086;2022-11-20T02:16:15;9.00;99.90
35445;DHT22;21562;49.476;6.086;2022-11-20T02:18:43;9.10;99.90
35445;DHT22;21562;49.476;6.086;2022-11-20T02:23:54;8.90;99.90
35445;DHT22;21562;49.476;6.086;2022-11-20T02:26:21;8.90;99.90
35445;DHT22;21562;49.476;6.086;2022-11-20T02:28:48;9.00;99.90
35445;DHT22;21562;49.476;6.086;2022-11-20T02:31:14;8.90;99.90
35445;DHT22;21562;49.476;6.086;2022-11-20T02:33:40;8.80;99.90
35445;DHT22;21562;49.476;6.086;2022-11-20T02:36:07;8.80;99.90
35445;DHT22;21562;49.476;6.086;2022-11-20T02:38:33;9.00;99.90
35445;DHT22;21562;49.476;6.086;2022-11-20T02:40:59;9.30;99.90
35445;DHT22;21562;49.476;6.086;2022-11-20T02:43:24;9.00;99.90
35445;DHT22;21562;49.476;6.086;2022-11-20T02:45:50;8.80;99.90
35445;DHT22;21562;49.476;6.086;2022-11-20T02:48:16;8.80;99.90
35445;DHT22;21562;49.476;6.086;2022-11-20T02:50:41;8.80;99.90
35445;DHT22;21562;49.476;6.086;2022-11-20T02:53:08;8.80;99.90
35445;DHT22;21562;49.476;6.086;2022-11-20T02:55:33;8.80;99.90
35445;DHT22;21562;49.476;6.086;2022-11-20T02:57:59;8.80;99.90
35445;DHT22;21562;49.476;6.086;2022-11-20T03:00:25;8.80;99.90
35445;DHT22;21562;49.476;6.086;2022-11-20T03:02:50;8.80;99.90
35445;DHT22;21562;49.476;6.086;2022-11-20T03:05:16;8.90;99.90
35445;DHT22;21562;49.476;6.086;2022-11-20T03:07:43;9.20;99.90
35445;DHT22;21562;49.476;6.086;2022-11-20T03:10:09;9.00;99.90
35445;DHT22;21562;49.476;6.086;2022-11-20T03:12:35;8.90;99.90
35445;DHT22;21562;49.476;6.086;2022-11-20T03:15:00;8.90;99.90
35445;DHT22;21562;49.476;6.086;2022-11-20T03:17:26;8.60;99.90
35445;DHT22;21562;49.476;6.086;2022-11-20T03:19:52;8.60;99.90
35445;DHT22;21562;49.476;6.086;2022-11-20T03:22:17;8.80;99.90
35445;DHT22;21562;49.476;6.086;2022-11-20T03:24:43;8.90;99.90
35445;DHT22;21562;49.476;6.086;2022-11-20T03:27:09;8.80;99.90
35445;DHT22;21562;49.476;6.086;2022-11-20T03:29:37;8.70;99.90
35445;DHT22;21562;49.476;6.086;2022-11-20T03:32:03;8.70;99.90
35445;DHT22;21562;49.476;6.086;2022-11-20T03:34:29;8.70;99.90
35445;DHT22;21562;49.476;6.086;2022-11-20T03:36:54;8.70;99.90
35445;DHT22;21562;49.476;6.086;2022-11-20T03:39:20;8.80;99.90
35445;DHT22;21562;49.476;6.086;2022-11-20T03:41:45;9.00;99.90
35445;DHT22;21562;49.476;6.086;2022-11-20T03:44:11;8.70;99.90
35445;DHT22;21562;49.476;6.086;2022-11-20T03:46:37;8.80;99.90
35445;DHT22;21562;49.476;6.086;2022-11-20T03:49:04;8.90;99.90
35445;DHT22;21562;49.476;6.086;2022-11-20T03:51:32;9.00;99.90
35445;DHT22;21562;49.476;6.086;2022-11-20T03:54:00;9.00;99.90
35445;DHT22;21562;49.476;6.086;2022-11-20T03:56:28;8.70;99.90
35445;DHT22;21562;49.476;6.086;2022-11-20T03:58:55;8.50;99.90
35445;DHT22;21562;49.476;6.086;2022-11-20T04:01:22;8.50;99.90
35445;DHT22;21562;49.476;6.086;2022-11-20T04:03:49;8.50;99.90
35445;DHT22;21562;49.476;6.086;2022-11-20T04:06:18;8.50;99.90
35445;DHT22;21562;49.476;6.086;2022-11-20T04:08:43;8.60;99.90
35445;DHT22;21562;49.476;6.086;2022-11-20T04:11:13;8.70;99.90
35445;DHT22;21562;49.476;6.086;2022-11-20T04:13:40;8.60;99.90
35445;DHT22;21562;49.476;6.086;2022-11-20T04:16:06;8.80;99.90
35445;DHT22;21562;49.476;6.086;2022-11-20T04:18:32;9.00;99.90
35445;DHT22;21562;49.476;6.086;2022-11-20T04:20:58;8.90;99.90
35445;DHT22;21562;49.476;6.086;2022-11-20T04:23:24;8.90;99.90
35445;DHT22;21562;49.476;6.086;2022-11-20T04:25:50;8.70;99.90
35445;DHT22;21562;49.476;6.086;2022-11-20T04:28:16;8.50;99.90
35445;DHT22;21562;49.476;6.086;2022-11-20T04:30:41;8.60;99.90
35445;DHT22;21562;49.476;6.086;2022-11-20T04:33:07;8.60;99.90
35445;DHT22;21562;49.476;6.086;2022-11-20T04:35:36;8.60;99.90
35445;DHT22;21562;49.476;6.086;2022-11-20T04:38:03;8.70;99.90
35445;DHT22;21562;49.476;6.086;2022-11-20T04:40:29;8.70;99.90
35445;DHT22;21562;49.476;6.086;2022-11-20T04:42:55;8.60;99.90
35445;DHT22;21562;49.476;6.086;2022-11-20T04:45:22;8.50;99.90
35445;DHT22;21562;49.476;6.086;2022-11-20T04:47:49;8.50;99.90
35445;DHT22;21562;49.476;6.086;2022-11-20T04:50:14;8.50;99.90
35445;DHT22;21562;49.476;6.086;2022-11-20T04:52:40;8.50;99.90
35445;DHT22;21562;49.476;6.086;2022-11-20T04:55:06;8.50;99.90
35445;DHT22;21562;49.476;6.086;2022-11-20T04:57:32;8.60;99.90
35445;DHT22;21562;49.476;6.086;2022-11-20T04:59:57;8.60;99.90
35445;DHT22;21562;49.476;6.086;2022-11-20T05:02:23;8.50;99.90
35445;DHT22;21562;49.476;6.086;2022-11-20T05:04:49;8.60;99.90
35445;DHT22;21562;49.476;6.086;2022-11-20T05:07:14;8.60;99.90
35445;DHT22;21562;49.476;6.086;2022-11-20T05:09:40;8.60;99.90
35445;DHT22;21562;49.476;6.086;2022-11-20T05:12:07;8.50;99.90
35445;DHT22;21562;49.476;6.086;2022-11-20T05:14:33;8.60;99.90
35445;DHT22;21562;49.476;6.086;2022-11-20T05:16:59;8.50;99.90
35445;DHT22;21562;49.476;6.086;2022-11-20T05:19:24;8.60;99.90
35445;DHT22;21562;49.476;6.086;2022-11-20T05:21:50;8.60;99.90
35445;DHT22;21562;49.476;6.086;2022-11-20T05:24:16;8.60;99.90
35445;DHT22;21562;49.476;6.086;2022-11-20T05:26:41;8.80;99.90
35445;DHT22;21562;49.476;6.086;2022-11-20T05:29:10;8.60;99.90
35445;DHT22;21562;49.476;6.086;2022-11-20T05:31:36;8.30;99.90
35445;DHT22;21562;49.476;6.086;2022-11-20T05:34:02;8.30;99.90
35445;DHT22;21562;49.476;6.086;2022-11-20T05:36:28;8.40;99.90
35445;DHT22;21562;49.476;6.086;2022-11-20T05:38:55;8.60;99.90
35445;DHT22;21562;49.476;6.086;2022-11-20T05:41:21;8.70;99.90
35445;DHT22;21562;49.476;6.086;2022-11-20T05:43:47;8.60;99.90
35445;DHT22;21562;49.476;6.086;2022-11-20T05:46:16;8.50;99.90
35445;DHT22;21562;49.476;6.086;2022-11-20T05:48:44;8.50;99.90
35445;DHT22;21562;49.476;6.086;2022-11-20T05:51:16;8.50;99.90
35445;DHT22;21562;49.476;6.086;2022-11-20T05:53:42;8.50;99.90
35445;DHT22;21562;49.476;6.086;2022-11-20T05:56:11;8.50;99.90
35445;DHT22;21562;49.476;6.086;2022-11-20T05:58:37;8.60;99.90
35445;DHT22;21562;49.476;6.086;2022-11-20T06:01:18;8.50;99.90
35445;DHT22;21562;49.476;6.086;2022-11-20T06:03:44;8.50;99.90
35445;DHT22;21562;49.476;6.086;2022-11-20T06:06:13;8.50;99.90
35445;DHT22;21562;49.476;6.086;2022-11-20T06:08:39;8.40;99.90
35445;DHT22;21562;49.476;6.086;2022-11-20T06:11:09;8.40;99.90
35445;DHT22;21562;49.476;6.086;2022-11-20T06:13:35;8.50;99.90
35445;DHT22;21562;49.476;6.086;2022-11-20T06:16:01;8.50;99.90
35445;DHT22;21562;49.476;6.086;2022-11-20T06:18:28;8.60;99.90
35445;DHT22;21562;49.476;6.086;2022-11-20T06:23:28;8.80;99.90
35445;DHT22;21562;49.476;6.086;2022-11-20T06:25:54;8.90;99.90
35445;DHT22;21562;49.476;6.086;2022-11-20T06:28:20;8.90;99.90
35445;DHT22;21562;49.476;6.086;2022-11-20T06:30:46;9.10;99.90
35445;DHT22;21562;49.476;6.086;2022-11-20T06:33:11;8.90;99.90
35445;DHT22;21562;49.476;6.086;2022-11-20T06:35:37;8.80;99.90
35445;DHT22;21562;49.476;6.086;2022-11-20T06:38:02;8.50;99.90
35445;DHT22;21562;49.476;6.086;2022-11-20T06:40:28;8.50;99.90
35445;DHT22;21562;49.476;6.086;2022-11-20T06:42:54;8.50;99.90
35445;DHT22;21562;49.476;6.086;2022-11-20T06:45:21;8.60;99.90
35445;DHT22;21562;49.476;6.086;2022-11-20T06:47:46;8.70;99.90
35445;DHT22;21562;49.476;6.086;2022-11-20T06:50:12;8.60;99.90
35445;DHT22;21562;49.476;6.086;2022-11-20T06:52:38;8.70;99.90
35445;DHT22;21562;49.476;6.086;2022-11-20T06:55:04;8.60;99.90
35445;DHT22;21562;49.476;6.086;2022-11-20T06:57:30;8.60;99.90
35445;DHT22;21562;49.476;6.086;2022-11-20T06:59:55;8.70;99.90
35445;DHT22;21562;49.476;6.086;2022-11-20T07:02:21;8.80;99.90
35445;DHT22;21562;49.476;6.086;2022-11-20T07:04:46;8.80;99.90
35445;DHT22;21562;49.476;6.086;2022-11-20T07:07:12;8.80;99.90
35445;DHT22;21562;49.476;6.086;2022-11-20T07:09:37;8.50;99.90
35445;DHT22;21562;49.476;6.086;2022-11-20T07:12:03;8.50;99.90
35445;DHT22;21562;49.476;6.086;2022-11-20T07:14:29;8.60;99.90
35445;DHT22;21562;49.476;6.086;2022-11-20T07:16:55;8.90;99.90
35445;DHT22;21562;49.476;6.086;2022-11-20T07:19:20;8.80;99.90
35445;DHT22;21562;49.476;6.086;2022-11-20T07:21:46;8.70;99.90
35445;DHT22;21562;49.476;6.086;2022-11-20T07:24:11;8.60;99.90
35445;DHT22;21562;49.476;6.086;2022-11-20T07:26:37;8.60;99.90
35445;DHT22;21562;49.476;6.086;2022-11-20T07:29:03;8.60;99.90
35445;DHT22;21562;49.476;6.086;2022-11-20T07:31:28;8.40;99.90
35445;DHT22;21562;49.476;6.086;2022-11-20T07:33:54;8.60;99.90
35445;DHT22;21562;49.476;6.086;2022-11-20T07:36:20;8.60;99.90
35445;DHT22;21562;49.476;6.086;2022-11-20T07:38:45;8.70;99.90
35445;DHT22;21562;49.476;6.086;2022-11-20T07:41:11;8.50;99.90
35445;DHT22;21562;49.476;6.086;2022-11-20T07:43:36;8.60;99.90
35445;DHT22;21562;49.476;6.086;2022-11-20T07:46:02;8.60;99.90
35445;DHT22;21562;49.476;6.086;2022-11-20T07:48:29;8.70;99.90
35445;DHT22;21562;49.476;6.086;2022-11-20T07:50:55;8.70;99.90
35445;DHT22;21562;49.476;6.086;2022-11-20T07:53:21;8.60;99.90
35445;DHT22;21562;49.476;6.086;2022-11-20T07:55:47;8.60;99.90
35445;DHT22;21562;49.476;6.086;2022-11-20T07:58:13;8.70;99.90
35445;DHT22;21562;49.476;6.086;2022-11-20T08:00:39;8.60;99.90
35445;DHT22;21562;49.476;6.086;2022-11-20T08:03:06;8.50;99.90
35445;DHT22;21562;49.476;6.086;2022-11-20T08:05:32;8.40;99.90
35445;DHT22;21562;49.476;6.086;2022-11-20T08:07:57;8.20;99.90
35445;DHT22;21562;49.476;6.086;2022-11-20T08:10:23;8.20;99.90
35445;DHT22;21562;49.476;6.086;2022-11-20T08:12:51;8.40;99.90
35445;DHT22;21562;49.476;6.086;2022-11-20T08:15:36;8.50;99.90
35445;DHT22;21562;49.476;6.086;2022-11-20T08:18:10;8.60;99.90
35445;DHT22;21562;49.476;6.086;2022-11-20T08:20:37;8.50;99.90
35445;DHT22;21562;49.476;6.086;2022-11-20T08:23:04;8.40;99.90
35445;DHT22;21562;49.476;6.086;2022-11-20T08:25:34;8.40;99.90
35445;DHT22;21562;49.476;6.086;2022-11-20T08:28:02;8.30;99.90
35445;DHT22;21562;49.476;6.086;2022-11-20T08:30:28;8.20;99.90
35445;DHT22;21562;49.476;6.086;2022-11-20T08:32:56;8.30;99.90
35445;DHT22;21562;49.476;6.086;2022-11-20T08:35:26;8.40;99.90
35445;DHT22;21562;49.476;6.086;2022-11-20T08:37:51;8.20;99.90
35445;DHT22;21562;49.476;6.086;2022-11-20T08:40:17;8.20;99.90
35445;DHT22;21562;49.476;6.086;2022-11-20T08:42:50;8.40;99.90
35445;DHT22;21562;49.476;6.086;2022-11-20T08:45:16;8.40;99.90
35445;DHT22;21562;49.476;6.086;2022-11-20T08:47:43;8.40;99.90
35445;DHT22;21562;49.476;6.086;2022-11-20T08:50:10;8.20;99.90
35445;DHT22;21562;49.476;6.086;2022-11-20T08:52:37;8.50;99.90
35445;DHT22;21562;49.476;6.086;2022-11-20T08:55:03;8.60;99.90
35445;DHT22;21562;49.476;6.086;2022-11-20T08:57:34;8.40;99.90
35445;DHT22;21562;49.476;6.086;2022-11-20T09:00:01;8.70;99.90
35445;DHT22;21562;49.476;6.086;2022-11-20T09:02:26;8.90;99.90
35445;DHT22;21562;49.476;6.086;2022-11-20T09:04:52;8.80;99.90
35445;DHT22;21562;49.476;6.086;2022-11-20T09:07:19;8.80;99.90
35445;DHT22;21562;49.476;6.086;2022-11-20T09:09:45;8.90;99.90
35445;DHT22;21562;49.476;6.086;2022-11-20T09:12:10;8.90;99.90
35445;DHT22;21562;49.476;6.086;2022-11-20T09:14:36;9.00;99.90
35445;DHT22;21562;49.476;6.086;2022-11-20T09:17:02;8.90;99.90
35445;DHT22;21562;49.476;6.086;2022-11-20T09:19:27;8.60;99.90
35445;DHT22;21562;49.476;6.086;2022-11-20T09:21:53;8.60;99.90
35445;DHT22;21562;49.476;6.086;2022-11-20T09:24:19;8.60;99.90
35445;DHT22;21562;49.476;6.086;2022-11-20T09:26:46;8.50;99.90
35445;DHT22;21562;49.476;6.086;2022-11-20T09:29:12;8.40;99.90
35445;DHT22;21562;49.476;6.086;2022-11-20T09:31:37;8.50;99.90
35445;DHT22;21562;49.476;6.086;2022-11-20T09:34:03;8.60;99.90
35445;DHT22;21562;49.476;6.086;2022-11-20T09:36:29;8.50;99.90
35445;DHT22;21562;49.476;6.086;2022-11-20T09:38:54;8.40;99.90
35445;DHT22;21562;49.476;6.086;2022-11-20T09:49:58;8.30;99.90
35445;DHT22;21562;49.476;6.086;2022-11-20T09:55:12;8.30;99.90
35445;DHT22;21562;49.476;6.086;2022-11-20T09:57:42;8.30;99.90
35445;DHT22;21562;49.476;6.086;2022-11-20T10:00:13;8.20;99.90
35445;DHT22;21562;49.476;6.086;2022-11-20T10:10:36;8.50;99.90
35445;DHT22;21562;49.476;6.086;2022-11-20T10:20:54;8.40;99.90
35445;DHT22;21562;49.476;6.086;2022-11-20T10:29:19;8.50;99.90
35445;DHT22;21562;49.476;6.086;2022-11-20T10:31:56;8.60;99.90
35445;DHT22;21562;49.476;6.086;2022-11-20T10:34:33;8.70;99.90
35445;DHT22;21562;49.476;6.086;2022-11-20T10:37:13;8.80;99.90
35445;DHT22;21562;49.476;6.086;2022-11-20T10:39:59;8.90;99.90
35445;DHT22;21562;49.476;6.086;2022-11-20T10:42:38;9.10;99.90
35445;DHT22;21562;49.476;6.086;2022-11-20T10:46:03;8.90;99.90
35445;DHT22;21562;49.476;6.086;2022-11-20T10:48:25;8.90;99.90
35445;DHT22;21562;49.476;6.086;2022-11-20T10:56:50;9.00;99.90
35445;DHT22;21562;49.476;6.086;2022-11-20T10:59:38;9.00;99.90
35445;DHT22;21562;49.476;6.086;2022-11-20T11:02:18;8.90;99.90
35445;DHT22;21562;49.476;6.086;2022-11-20T11:04:50;8.80;99.90
35445;DHT22;21562;49.476;6.086;2022-11-20T11:09:54;9.20;99.90
35445;DHT22;21562;49.476;6.086;2022-11-20T11:12:28;9.40;99.90
35445;DHT22;21562;49.476;6.086;2022-11-20T11:14:56;9.30;99.90
35445;DHT22;21562;49.476;6.086;2022-11-20T11:17:33;9.40;99.90
35445;DHT22;21562;49.476;6.086;2022-11-20T11:22:25;9.60;99.90
35445;DHT22;21562;49.476;6.086;2022-11-20T11:24:52;9.90;99.90
35445;DHT22;21562;49.476;6.086;2022-11-20T11:27:18;9.70;99.90
35445;DHT22;21562;49.476;6.086;2022-11-20T11:29:44;9.30;99.90
35445;DHT22;21562;49.476;6.086;2022-11-20T11:32:17;9.10;99.90
35445;DHT22;21562;49.476;6.086;2022-11-20T11:34:43;9.20;99.90
35445;DHT22;21562;49.476;6.086;2022-11-20T11:37:20;9.10;99.90
35445;DHT22;21562;49.476;6.086;2022-11-20T11:39:49;9.20;99.90
35445;DHT22;21562;49.476;6.086;2022-11-20T11:42:17;9.10;99.90
35445;DHT22;21562;49.476;6.086;2022-11-20T11:44:45;8.80;99.90
35445;DHT22;21562;49.476;6.086;2022-11-20T11:47:36;8.80;99.90
35445;DHT22;21562;49.476;6.086;2022-11-20T12:01:33;9.20;99.90
35445;DHT22;21562;49.476;6.086;2022-11-20T12:06:45;8.80;99.90
35445;DHT22;21562;49.476;6.086;2022-11-20T12:09:12;8.50;99.90
35445;DHT22;21562;49.476;6.086;2022-11-20T12:11:56;8.50;99.90
35445;DHT22;21562;49.476;6.086;2022-11-20T12:14:37;8.50;99.90
35445;DHT22;21562;49.476;6.086;2022-11-20T12:17:07;8.50;99.90
35445;DHT22;21562;49.476;6.086;2022-11-20T12:19:34;8.40;99.90
35445;DHT22;21562;49.476;6.086;2022-11-20T12:25:35;8.50;99.90
35445;DHT22;21562;49.476;6.086;2022-11-20T12:30:24;8.90;99.90
35445;DHT22;21562;49.476;6.086;2022-11-20T12:52:56;9.70;99.90
35445;DHT22;21562;49.476;6.086;2022-11-20T12:55:49;9.20;99.90
35445;DHT22;21562;49.476;6.086;2022-11-20T13:03:41;8.80;99.90
35445;DHT22;21562;49.476;6.086;2022-11-20T13:06:18;9.00;99.90
35445;DHT22;21562;49.476;6.086;2022-11-20T13:08:55;9.20;99.90
35445;DHT22;21562;49.476;6.086;2022-11-20T13:14:50;9.20;99.90
35445;DHT22;21562;49.476;6.086;2022-11-20T13:17:28;9.00;99.90
35445;DHT22;21562;49.476;6.086;2022-11-20T13:19:57;8.90;99.90
35445;DHT22;21562;49.476;6.086;2022-11-20T13:22:29;9.20;99.90
35445;DHT22;21562;49.476;6.086;2022-11-20T13:24:55;9.20;99.90
35445;DHT22;21562;49.476;6.086;2022-11-20T13:27:24;9.20;99.90
35445;DHT22;21562;49.476;6.086;2022-11-20T13:30:16;9.20;99.90
35445;DHT22;21562;49.476;6.086;2022-11-20T13:35:32;9.10;99.90
35445;DHT22;21562;49.476;6.086;2022-11-20T13:38:13;8.90;99.90
35445;DHT22;21562;49.476;6.086;2022-11-20T13:40:54;8.90;99.90
35445;DHT22;21562;49.476;6.086;2022-11-20T13:43:34;9.30;99.90
35445;DHT22;21562;49.476;6.086;2022-11-20T13:46:03;9.50;99.90
35445;DHT22;21562;49.476;6.086;2022-11-20T13:48:34;9.10;99.90
35445;DHT22;21562;49.476;6.086;2022-11-20T13:51:06;9.20;99.90
35445;DHT22;21562;49.476;6.086;2022-11-20T13:56:15;9.00;99.90
35445;DHT22;21562;49.476;6.086;2022-11-20T13:59:02;9.00;99.90
35445;DHT22;21562;49.476;6.086;2022-11-20T14:01:30;9.20;99.90
35445;DHT22;21562;49.476;6.086;2022-11-20T14:04:06;9.40;99.90
35445;DHT22;21562;49.476;6.086;2022-11-20T14:06:43;9.40;99.90
35445;DHT22;21562;49.476;6.086;2022-11-20T14:09:30;9.50;99.90
35445;DHT22;21562;49.476;6.086;2022-11-20T14:11:56;9.40;99.90
35445;DHT22;21562;49.476;6.086;2022-11-20T14:14:29;9.20;99.90
35445;DHT22;21562;49.476;6.086;2022-11-20T14:17:19;9.30;99.90
35445;DHT22;21562;49.476;6.086;2022-11-20T14:19:47;9.20;99.90
35445;DHT22;21562;49.476;6.086;2022-11-20T14:22:22;9.30;99.90
35445;DHT22;21562;49.476;6.086;2022-11-20T14:25:00;9.20;99.90
35445;DHT22;21562;49.476;6.086;2022-11-20T14:27:26;9.10;99.90
35445;DHT22;21562;49.476;6.086;2022-11-20T14:29:52;8.50;99.90
35445;DHT22;21562;49.476;6.086;2022-11-20T14:32:19;8.40;99.90
35445;DHT22;21562;49.476;6.086;2022-11-20T14:34:48;8.30;99.90
35445;DHT22;21562;49.476;6.086;2022-11-20T14:37:24;8.40;99.90
35445;DHT22;21562;49.476;6.086;2022-11-20T14:39:55;8.40;99.90
35445;DHT22;21562;49.476;6.086;2022-11-20T14:42:26;8.40;99.90
35445;DHT22;21562;49.476;6.086;2022-11-20T14:44:55;8.40;99.90
35445;DHT22;21562;49.476;6.086;2022-11-20T14:47:24;8.40;99.90
35445;DHT22;21562;49.476;6.086;2022-11-20T14:49:52;8.40;99.90
35445;DHT22;21562;49.476;6.086;2022-11-20T14:52:23;8.50;99.90
35445;DHT22;21562;49.476;6.086;2022-11-20T14:54:51;8.40;99.90
35445;DHT22;21562;49.476;6.086;2022-11-20T14:57:24;8.40;99.90
35445;DHT22;21562;49.476;6.086;2022-11-20T14:59:51;8.30;99.90
35445;DHT22;21562;49.476;6.086;2022-11-20T15:02:30;8.40;99.90
35445;DHT22;21562;49.476;6.086;2022-11-20T15:05:00;8.20;99.90
35445;DHT22;21562;49.476;6.086;2022-11-20T15:07:37;8.20;99.90
35445;DHT22;21562;49.476;6.086;2022-11-20T15:10:09;8.10;99.90
35445;DHT22;21562;49.476;6.086;2022-11-20T15:12:45;8.20;99.90
35445;DHT22;21562;49.476;6.086;2022-11-20T15:15:12;7.90;99.90
35445;DHT22;21562;49.476;6.086;2022-11-20T15:17:40;8.00;99.90
35445;DHT22;21562;49.476;6.086;2022-11-20T15:20:13;8.00;99.90
35445;DHT22;21562;49.476;6.086;2022-11-20T15:22:38;8.00;99.90
35445;DHT22;21562;49.476;6.086;2022-11-20T15:25:15;8.00;99.90
35445;DHT22;21562;49.476;6.086;2022-11-20T15:27:42;7.80;99.90
35445;DHT22;21562;49.476;6.086;2022-11-20T15:30:18;8.10;99.90
35445;DHT22;21562;49.476;6.086;2022-11-20T15:32:47;8.30;99.90
35445;DHT22;21562;49.476;6.086;2022-11-20T15:35:14;8.20;99.90
35445;DHT22;21562;49.476;6.086;2022-11-20T15:37:41;8.30;99.90
35445;DHT22;21562;49.476;6.086;2022-11-20T15:40:07;8.20;99.90
35445;DHT22;21562;49.476;6.086;2022-11-20T15:42:34;8.20;99.90
35445;DHT22;21562;49.476;6.086;2022-11-20T15:45:00;8.00;99.90
35445;DHT22;21562;49.476;6.086;2022-11-20T15:47:29;7.70;99.90
35445;DHT22;21562;49.476;6.086;2022-11-20T15:49:55;7.80;99.90
35445;DHT22;21562;49.476;6.086;2022-11-20T15:52:21;7.70;99.90
35445;DHT22;21562;49.476;6.086;2022-11-20T15:54:46;7.70;99.90
35445;DHT22;21562;49.476;6.086;2022-11-20T15:57:12;8.00;99.90
35445;DHT22;21562;49.476;6.086;2022-11-20T15:59:38;8.00;99.90
35445;DHT22;21562;49.476;6.086;2022-11-20T16:02:14;7.90;99.90
35445;DHT22;21562;49.476;6.086;2022-11-20T16:04:39;7.70;99.90
35445;DHT22;21562;49.476;6.086;2022-11-20T16:07:05;7.50;99.90
35445;DHT22;21562;49.476;6.086;2022-11-20T16:09:31;7.60;99.90
35445;DHT22;21562;49.476;6.086;2022-11-20T16:11:59;7.60;99.90
35445;DHT22;21562;49.476;6.086;2022-11-20T16:14:25;7.50;99.90
35445;DHT22;21562;49.476;6.086;2022-11-20T16:17:09;7.40;99.90
35445;DHT22;21562;49.476;6.086;2022-11-20T16:19:35;7.60;99.90
35445;DHT22;21562;49.476;6.086;2022-11-20T16:22:01;7.60;99.90
35445;DHT22;21562;49.476;6.086;2022-11-20T16:24:27;7.40;99.90
35445;DHT22;21562;49.476;6.086;2022-11-20T16:26:56;7.40;99.90
35445;DHT22;21562;49.476;6.086;2022-11-20T16:29:21;7.50;99.90
35445;DHT22;21562;49.476;6.086;2022-11-20T16:31:47;7.50;99.90
35445;DHT22;21562;49.476;6.086;2022-11-20T16:34:15;7.40;99.90
35445;DHT22;21562;49.476;6.086;2022-11-20T16:36:42;7.40;99.90
35445;DHT22;21562;49.476;6.086;2022-11-20T16:39:09;7.50;99.90
35445;DHT22;21562;49.476;6.086;2022-11-20T16:41:35;7.40;99.90
35445;DHT22;21562;49.476;6.086;2022-11-20T16:44:05;7.20;99.90
35445;DHT22;21562;49.476;6.086;2022-11-20T16:46:31;7.30;99.90
35445;DHT22;21562;49.476;6.086;2022-11-20T16:51:25;7.50;99.90
35445;DHT22;21562;49.476;6.086;2022-11-20T16:53:51;7.40;99.90
35445;DHT22;21562;49.476;6.086;2022-11-20T16:56:19;7.30;99.90
35445;DHT22;21562;49.476;6.086;2022-11-20T16:58:46;7.30;99.90
35445;DHT22;21562;49.476;6.086;2022-11-20T17:01:15;7.40;99.90
35445;DHT22;21562;49.476;6.086;2022-11-20T17:03:43;7.50;99.90
35445;DHT22;21562;49.476;6.086;2022-11-20T17:06:14;7.50;99.90
35445;DHT22;21562;49.476;6.086;2022-11-20T17:08:40;7.40;99.90
35445;DHT22;21562;49.476;6.086;2022-11-20T17:11:11;7.50;99.90
35445;DHT22;21562;49.476;6.086;2022-11-20T17:13:38;7.60;99.90
35445;DHT22;21562;49.476;6.086;2022-11-20T17:16:06;7.80;99.90
35445;DHT22;21562;49.476;6.086;2022-11-20T17:18:33;7.60;99.90
35445;DHT22;21562;49.476;6.086;2022-11-20T17:20:59;7.70;99.90
35445;DHT22;21562;49.476;6.086;2022-11-20T17:23:30;7.70;99.90
35445;DHT22;21562;49.476;6.086;2022-11-20T17:26:04;7.60;99.90
35445;DHT22;21562;49.476;6.086;2022-11-20T17:28:31;7.60;99.90
35445;DHT22;21562;49.476;6.086;2022-11-20T17:31:00;7.70;99.90
35445;DHT22;21562;49.476;6.086;2022-11-20T17:33:27;7.70;99.90
35445;DHT22;21562;49.476;6.086;2022-11-20T17:35:53;7.50;99.90
35445;DHT22;21562;49.476;6.086;2022-11-20T17:38:18;7.70;99.90
35445;DHT22;21562;49.476;6.086;2022-11-20T17:40:44;8.10;99.90
35445;DHT22;21562;49.476;6.086;2022-11-20T17:43:10;8.00;99.90